Flight Track Log - Related Links

Times and Time Zones

All times are in EST time to prevent confusion due to time zone crossing. See the SWA4092 flight status page for this flight to view local times or setup timezone preferences in your user account.

Time Position Orientation Groundspeed Altitude Reporting Facility
EST Latitude Longitude Course Direction KTS MPH feet Rate Location/Type
Tue 11:50:03 PM 36.1314 -115.1739 321° Northwest 205 236 4,300  Level Los Angeles Center
Tue 11:51:03 PM 36.1133 -115.2597 255° West 257 296 7,100 2,331 Climbing Los Angeles Center
Tue 11:52:04 PM 36.0528 -115.3194 219° Southwest 294 338 9,000 984 Climbing Los Angeles Center
Tue 11:53:05 PM 35.9747 -115.3583 202° Southwest 310 357 9,100 1,131 Climbing Los Angeles Center
Tue 11:54:06 PM 35.9000 -115.4119 210° Southwest 316 364 11,300 2,016 Climbing Los Angeles Center
Tue 11:55:00 PM 35.9581 -116.0581 321° Northwest  Level FlightAware Approximate
Tue 11:55:10 PM 35.8867 -115.5292 262° West 354 407 13,300  Level Los Angeles Center
Tue 11:56:11 PM 35.8914 -115.6781 272° West 377 434 15,900 2,146 Climbing Los Angeles Center
Tue 11:57:13 PM 35.8936 -115.8158 271° West 401 461 17,700 1,805 Climbing Los Angeles Center
Tue 11:58:14 PM 35.9006 -115.9586 273° West 415 478 19,600 1,820 Climbing Los Angeles Center
Tue 11:59:15 PM 35.9764 -116.0614 312° West 404 465 21,400 1,756 Climbing Los Angeles Center
Wed 12:00:17 AM 36.0672 -116.1667 317° Northwest 418 481 23,200 1,610 Climbing Los Angeles Center
Wed 12:01:18 AM 36.1450 -116.2564 317° Northwest 421 484 24,700 1,377 Climbing Los Angeles Center
Wed 12:02:19 AM 36.2328 -116.3581 317° Northwest 430 495 26,000 1,366 Climbing Los Angeles Center
Wed 12:03:21 AM 36.3231 -116.4622 317° Northwest 440 506 27,500 1,561 Climbing Los Angeles Center
Wed 12:04:22 AM 36.4125 -116.5678 316° Northwest 444 511 29,200 1,672 Climbing Los Angeles Center
Wed 12:05:23 AM 36.5181 -116.6911 317° Northwest 438 504 30,900 1,328 Climbing Los Angeles Center
Wed 12:06:24 AM 36.5986 -116.7811 318° Northwest 433 498 31,900 780 Climbing Los Angeles Center
Wed 12:07:26 AM 36.6967 -116.8656 325° Northwest 436 502 32,500 1,073 Climbing Los Angeles Center
Wed 12:08:27 AM 36.8017 -116.9556 326° Northwest 427 491 34,100 1,613 Climbing Los Angeles Center
Wed 12:09:25 AM 36.8847 -117.0325 323° Northwest 418 481 35,700 958 Climbing Oakland Center
Wed 12:10:26 AM 36.9717 -117.1103 324° Northwest 396 456 36,000 149 Climbing Oakland Center
Wed 12:11:26 AM 37.0644 -117.1814 329° Northwest 392 451 36,000  Level Oakland Center
Wed 12:12:27 AM 37.1633 -117.2478 332° Northwest 399 459 36,000  Level Oakland Center
Wed 12:13:28 AM 37.2628 -117.3178 331° Northwest 405 466 36,000  Level Oakland Center
Wed 12:14:28 AM 37.3625 -117.3878 331° Northwest 408 470 36,000  Level Oakland Center
Wed 12:15:29 AM 37.4608 -117.4575 331° Northwest 405 466 36,000  Level Oakland Center
Wed 12:16:30 AM 37.5592 -117.5261 331° Northwest 403 464 36,000  Level Oakland Center
Wed 12:17:31 AM 37.6581 -117.5956 331° Northwest 403 464 36,000  Level Oakland Center
Wed 12:18:31 AM 37.7564 -117.6658 331° Northwest 403 464 36,000  Level Oakland Center
Wed 12:19:32 AM 37.8747 -117.7494 331° Northwest 403 464 36,000  Level Oakland Center
Wed 12:20:33 AM 37.9739 -117.8206 331° Northwest 405 466 36,000  Level Oakland Center
Wed 12:21:33 AM 38.0739 -117.8908 331° Northwest 407 468 36,000  Level Oakland Center
Wed 12:22:34 AM 38.1733 -117.9619 331° Northwest 407 468 36,000  Level Oakland Center
Wed 12:23:35 AM 38.2722 -118.0333 330° Northwest 407 468 36,000  Level Oakland Center
Wed 12:24:36 AM 38.3711 -118.1058 330° Northwest 408 470 36,000  Level Oakland Center
Wed 12:25:36 AM 38.4522 -118.1647 330° Northwest 400 460 36,000  Level Oakland Center
Wed 12:26:37 AM 38.5461 -118.2325 331° Northwest 391 450 36,000  Level Oakland Center
Wed 12:27:38 AM 38.6569 -118.3133 330° Northwest 385 443 36,000  Level Oakland Center
Wed 12:28:39 AM 38.7483 -118.3819 330° Northwest 382 440 36,000  Level Oakland Center
Wed 12:29:39 AM 38.8397 -118.4489 330° Northwest 380 437 36,000  Level Oakland Center
Wed 12:30:40 AM 38.9317 -118.5156 331° Northwest 379 436 36,000  Level Oakland Center
Wed 12:31:41 AM 39.0250 -118.5856 330° Northwest 385 443 36,000  Level Oakland Center
Wed 12:32:41 AM 39.1203 -118.6567 330° Northwest 393 452 36,000  Level Oakland Center
Wed 12:33:42 AM 39.2136 -118.7258 330° Northwest 398 458 36,000  Level Oakland Center
Wed 12:34:43 AM 39.3103 -118.7981 330° Northwest 400 460 36,000  Level Oakland Center
Wed 12:35:43 AM 39.4064 -118.8714 329° Northwest 401 461 36,000  Level Oakland Center
Wed 12:36:44 AM 39.5131 -118.9514 330° Northwest 401 461 36,000  Level Oakland Center
Wed 12:37:45 AM 39.6081 -119.0233 330° Northwest 397 457 36,000  Level Oakland Center
Wed 12:38:46 AM 39.7019 -119.0950 330° Northwest 392 451 36,000  Level Oakland Center
Wed 12:39:46 AM 39.7958 -119.1667 330° Northwest 391 450 36,000  Level Oakland Center
Wed 12:40:47 AM 39.8906 -119.2375 330° Northwest 392 451 36,000  Level Oakland Center
Wed 12:41:48 AM 39.9842 -119.3100 329° Northwest 392 451 36,000  Level Oakland Center
Wed 12:42:48 AM 40.0772 -119.3814 330° Northwest 389 448 36,000  Level Oakland Center
Wed 12:43:49 AM 40.1700 -119.4528 330° Northwest 387 445 36,000  Level Oakland Center
Wed 12:44:50 AM 40.2622 -119.5233 330° Northwest 385 443 36,000  Level Oakland Center
Wed 12:45:51 AM 40.3561 -119.5969 329° Northwest 391 450 36,000  Level Oakland Center
Wed 12:46:51 AM 40.4506 -119.6717 329° Northwest 394 453 36,000  Level Oakland Center
Wed 12:47:52 AM 40.5522 -119.7503 330° Northwest 401 461 36,000  Level Oakland Center
Wed 12:48:53 AM 40.6497 -119.8269 329° Northwest 406 467 36,000 -492 Level Oakland Center
Wed 12:49:54 AM 40.7456 -119.9033 329° Northwest 403 464 35,000 -992 Descending Oakland Center
Wed 12:50:54 AM 40.8317 -119.9700 330° Northwest 359 413 34,000 -496 Descending Oakland Center
Wed 12:51:55 AM 40.9183 -120.0389 329° Northwest 360 414 34,000  Level Oakland Center
Wed 12:52:24 AM 40.9547 -120.0681 329° Northwest 367 422 34,000  Level Seattle Center
Wed 12:53:24 AM 41.0453 -120.1417 328° Northwest 376 433 34,000  Level Seattle Center
Wed 12:54:25 AM 41.1367 -120.2150 329° Northwest 382 440 34,000  Level Seattle Center
Wed 12:55:25 AM 41.2286 -120.2889 329° Northwest 385 443 34,000  Level Seattle Center
Wed 12:56:26 AM 41.3208 -120.3628 329° Northwest 385 443 34,000  Level Seattle Center
Wed 12:57:26 AM 41.4350 -120.4478 331° Northwest 390 449 34,000  Level Seattle Center
Wed 12:58:27 AM 41.5269 -120.5228 329° Northwest 388 447 34,000  Level Seattle Center
Wed 12:59:27 AM 41.6169 -120.5964 329° Northwest 384 442 34,000  Level Seattle Center
Wed 01:00:28 AM 41.7067 -120.6694 329° Northwest 380 437 34,000  Level Seattle Center
Wed 01:01:28 AM 41.7942 -120.7439 328° Northwest 376 433 34,000  Level Seattle Center
Wed 01:02:29 AM 41.8858 -120.8167 329° Northwest 381 438 34,000  Level Seattle Center
Wed 01:03:29 AM 41.9756 -120.8906 329° Northwest 381 438 34,000  Level Seattle Center
Wed 01:04:30 AM 42.0647 -120.9633 329° Northwest 377 434 34,000  Level Seattle Center
Wed 01:05:30 AM 42.1539 -121.0369 329° Northwest 378 435 34,000  Level Seattle Center
Wed 01:06:30 AM 42.2417 -121.1106 328° Northwest 375 432 34,000  Level Seattle Center
Wed 01:07:31 AM 42.3306 -121.1842 329° Northwest 375 432 34,000  Level Seattle Center
Wed 01:08:31 AM 42.4186 -121.2586 328° Northwest 375 432 34,000  Level Seattle Center
Wed 01:09:32 AM 42.5072 -121.3317 329° Northwest 375 432 34,000  Level Seattle Center
Wed 01:10:32 AM 42.5931 -121.4044 328° Northwest 370 426 34,000  Level Seattle Center
Wed 01:11:33 AM 42.6814 -121.4769 329° Northwest 372 428 34,000  Level Seattle Center
Wed 01:12:33 AM 42.7700 -121.5514 328° Northwest 374 430 34,000  Level Seattle Center
Wed 01:13:34 AM 42.8592 -121.6272 328° Northwest 377 434 34,000  Level Seattle Center
Wed 01:14:34 AM 42.9483 -121.7006 329° Northwest 377 434 34,000  Level Seattle Center
Wed 01:15:34 AM 43.0367 -121.7800 327° Northwest 385 443 34,000  Level Seattle Center
Wed 01:16:35 AM 43.1264 -121.8597 327° Northwest 385 443 34,000  Level Seattle Center
Wed 01:17:35 AM 43.2144 -121.9317 329° Northwest 375 432 34,000  Level Seattle Center
Wed 01:18:36 AM 43.3081 -122.0111 328° Northwest 375 432 34,000  Level Seattle Center
Wed 01:19:36 AM 43.3975 -122.0878 328° Northwest 378 435 34,000  Level Seattle Center
Wed 01:20:37 AM 43.4869 -122.1650 328° Northwest 379 436 34,000  Level Seattle Center
Wed 01:21:37 AM 43.5758 -122.2431 328° Northwest 379 436 34,000  Level Seattle Center
Wed 01:22:37 AM 43.6650 -122.3219 327° Northwest 381 438 34,000  Level Seattle Center
Wed 01:23:38 AM 43.7547 -122.4000 328° Northwest 381 438 34,000  Level Seattle Center
Wed 01:24:38 AM 43.8436 -122.4792 327° Northwest 381 438 34,000  Level Seattle Center
Wed 01:25:39 AM 43.9503 -122.5750 327° Northwest 381 438 34,000 -1,240 Level Seattle Center
Wed 01:26:39 AM 44.0397 -122.6547 327° Northwest 382 440 31,500 -2,600 Descending Seattle Center
Wed 01:27:39 AM 44.1308 -122.7350 328° Northwest 386 444 28,800 -2,430 Descending Seattle Center
Wed 01:28:40 AM 44.2397 -122.7436 357° North 398 458 26,600 -2,231 Descending Seattle Center
Wed 01:29:40 AM 44.3500 -122.7314 North 402 463 24,300 -2,281 Descending Seattle Center
Wed 01:30:41 AM 44.4603 -122.7208 North 400 460 22,000 -2,231 Descending Seattle Center
Wed 01:31:41 AM 44.5678 -122.7097 North 395 455 19,800 -2,069 Descending Seattle Center
Wed 01:32:08 AM 44.6169 -122.7053 North 379 436 19,000 -1,647 Descending Seattle Center
Wed 01:32:32 AM 44.6572 -122.7014 North 373 429 18,400 -1,624 Descending Seattle Center
Wed 01:33:33 AM 44.7525 -122.6906 North 351 404 16,700 -1,918 Descending Seattle Center
Wed 01:34:34 AM 44.8486 -122.6825 North 344 396 14,500 -1,983 Descending Seattle Center
Wed 01:35:34 AM 44.9483 -122.6728 North 339 390 12,700 -1,339 Descending Seattle Center
Wed 01:36:35 AM 45.0375 -122.6642 North 322 371 11,800 -1,140 Descending Seattle Center
Wed 01:37:35 AM 45.1253 -122.6686 358° North 319 367 10,400 -1,190 Descending Seattle Center
Wed 01:38:36 AM 45.2019 -122.7050 342° North 293 337 9,400 -1,180 Descending Seattle Center
Wed 01:39:37 AM 45.2781 -122.7386 343° North 285 328 8,000 -1,438 Descending Seattle Center
Wed 01:40:37 AM 45.3500 -122.7739 341° North 276 318 6,500 -1,388 Descending Seattle Center
Wed 01:41:38 AM 45.4236 -122.8058 343° North 274 315 5,200 -1,304 Descending Seattle Center
Wed 01:42:32 AM 45.4878 -122.8353 342° North 265 305 4,000 -843 Descending Seattle Center
Wed 01:43:39 AM 45.5603 -122.7967 20° North 255 293 3,500 -609 Descending Seattle Center
Wed 01:44:40 AM 45.6203 -122.7600 23° Northeast 228 262 2,700 -887 Descending Seattle Center
Wed 01:45:34 AM 45.6303 -122.7128 73° East 168 193 1,800 -992 Descending Seattle Center
Wed 01:46:41 AM 45.6119 -122.6647 119° Southeast 125 144 700 -582 Descending Seattle Center
Wed 01:47:48 AM 45.5897 -122.6142 122° Southeast 147 169 500 -179 Descending Seattle Center

Login

Don't have an account? Register now (free) for customized features, flight alerts, and more!